sensor_id;sensor_type;location;lat;lon;timestamp;temperature;humidity
67799;SHT30;54596;43.216;27.904;2022-08-25T00:00:31;23.71;77.48
67799;SHT30;54596;43.216;27.904;2022-08-25T00:02:57;23.68;77.31
67799;SHT30;54596;43.216;27.904;2022-08-25T00:05:25;23.71;76.89
67799;SHT30;54596;43.216;27.904;2022-08-25T00:07:51;23.68;77.11
67799;SHT30;54596;43.216;27.904;2022-08-25T00:10:17;23.67;77.13
67799;SHT30;54596;43.216;27.904;2022-08-25T00:12:42;23.69;77.25
67799;SHT30;54596;43.216;27.904;2022-08-25T00:15:08;23.62;77.52
67799;SHT30;54596;43.216;27.904;2022-08-25T00:17:34;23.51;77.97
67799;SHT30;54596;43.216;27.904;2022-08-25T00:19:59;23.43;78.22
67799;SHT30;54596;43.216;27.904;2022-08-25T00:22:25;23.39;78.28
67799;SHT30;54596;43.216;27.904;2022-08-25T00:24:50;23.31;78.65
67799;SHT30;54596;43.216;27.904;2022-08-25T00:27:16;23.28;78.45
67799;SHT30;54596;43.216;27.904;2022-08-25T00:29:42;23.23;78.58
67799;SHT30;54596;43.216;27.904;2022-08-25T00:32:08;23.24;78.39
67799;SHT30;54596;43.216;27.904;2022-08-25T00:34:36;23.19;78.66
67799;SHT30;54596;43.216;27.904;2022-08-25T00:37:04;23.13;78.76
67799;SHT30;54596;43.216;27.904;2022-08-25T00:39:31;23.15;78.88
67799;SHT30;54596;43.216;27.904;2022-08-25T00:41:58;23.13;79.13
67799;SHT30;54596;43.216;27.904;2022-08-25T00:44:27;23.17;79.11
67799;SHT30;54596;43.216;27.904;2022-08-25T00:46:55;23.13;79.45
67799;SHT30;54596;43.216;27.904;2022-08-25T00:49:29;23.06;79.75
67799;SHT30;54596;43.216;27.904;2022-08-25T00:52:09;23.02;80.09
67799;SHT30;54596;43.216;27.904;2022-08-25T00:54:41;22.95;80.43
67799;SHT30;54596;43.216;27.904;2022-08-25T00:57:10;22.96;80.96
67799;SHT30;54596;43.216;27.904;2022-08-25T00:59:37;22.99;81.65
67799;SHT30;54596;43.216;27.904;2022-08-25T01:02:04;23.00;82.19
67799;SHT30;54596;43.216;27.904;2022-08-25T01:04:31;23.00;82.11
67799;SHT30;54596;43.216;27.904;2022-08-25T01:06:58;23.00;81.82
67799;SHT30;54596;43.216;27.904;2022-08-25T01:09:24;23.07;81.11
67799;SHT30;54596;43.216;27.904;2022-08-25T01:11:50;23.05;80.49
67799;SHT30;54596;43.216;27.904;2022-08-25T01:14:19;23.10;79.83
67799;SHT30;54596;43.216;27.904;2022-08-25T01:16:45;23.20;78.96
67799;SHT30;54596;43.216;27.904;2022-08-25T01:19:13;23.15;78.70
67799;SHT30;54596;43.216;27.904;2022-08-25T01:21:46;23.06;78.34
67799;SHT30;54596;43.216;27.904;2022-08-25T01:24:34;23.07;76.85
67799;SHT30;54596;43.216;27.904;2022-08-25T01:27:01;23.09;76.77
67799;SHT30;54596;43.216;27.904;2022-08-25T01:29:28;23.06;76.34
67799;SHT30;54596;43.216;27.904;2022-08-25T01:31:57;23.06;76.44
67799;SHT30;54596;43.216;27.904;2022-08-25T01:34:29;23.05;76.39
67799;SHT30;54596;43.216;27.904;2022-08-25T01:36:56;23.03;75.66
67799;SHT30;54596;43.216;27.904;2022-08-25T01:39:22;23.05;75.32
67799;SHT30;54596;43.216;27.904;2022-08-25T01:44:29;23.15;74.15
67799;SHT30;54596;43.216;27.904;2022-08-25T01:46:54;23.17;73.71
67799;SHT30;54596;43.216;27.904;2022-08-25T01:49:20;23.16;73.96
67799;SHT30;54596;43.216;27.904;2022-08-25T01:51:50;23.19;74.04
67799;SHT30;54596;43.216;27.904;2022-08-25T01:54:16;23.15;73.71
67799;SHT30;54596;43.216;27.904;2022-08-25T01:56:42;23.17;73.50
67799;SHT30;54596;43.216;27.904;2022-08-25T01:59:08;23.19;73.47
67799;SHT30;54596;43.216;27.904;2022-08-25T02:01:33;23.26;73.12
67799;SHT30;54596;43.216;27.904;2022-08-25T02:03:59;23.24;72.98
67799;SHT30;54596;43.216;27.904;2022-08-25T02:06:29;23.24;73.05
67799;SHT30;54596;43.216;27.904;2022-08-25T02:09:04;23.26;73.27
67799;SHT30;54596;43.216;27.904;2022-08-25T02:11:31;23.22;73.16
67799;SHT30;54596;43.216;27.904;2022-08-25T02:13:56;23.20;73.09
67799;SHT30;54596;43.216;27.904;2022-08-25T02:16:28;23.20;73.28
67799;SHT30;54596;43.216;27.904;2022-08-25T02:18:55;23.17;73.24
67799;SHT30;54596;43.216;27.904;2022-08-25T02:21:21;23.16;73.26
67799;SHT30;54596;43.216;27.904;2022-08-25T02:23:46;23.19;73.24
67799;SHT30;54596;43.216;27.904;2022-08-25T02:26:12;23.15;73.30
67799;SHT30;54596;43.216;27.904;2022-08-25T02:28:41;23.15;73.24
67799;SHT30;54596;43.216;27.904;2022-08-25T02:31:08;23.12;73.18
67799;SHT30;54596;43.216;27.904;2022-08-25T02:33:34;23.13;73.14
67799;SHT30;54596;43.216;27.904;2022-08-25T02:36:00;23.09;73.30
67799;SHT30;54596;43.216;27.904;2022-08-25T02:38:26;23.12;73.31
67799;SHT30;54596;43.216;27.904;2022-08-25T02:40:56;23.16;73.30
67799;SHT30;54596;43.216;27.904;2022-08-25T02:43:22;23.16;73.18
67799;SHT30;54596;43.216;27.904;2022-08-25T02:45:47;23.16;73.22
67799;SHT30;54596;43.216;27.904;2022-08-25T02:48:13;23.17;73.19
67799;SHT30;54596;43.216;27.904;2022-08-25T02:50:38;23.20;73.21
67799;SHT30;54596;43.216;27.904;2022-08-25T02:53:04;23.22;73.02
67799;SHT30;54596;43.216;27.904;2022-08-25T02:55:30;23.31;72.68
67799;SHT30;54596;43.216;27.904;2022-08-25T02:57:55;23.27;72.90
67799;SHT30;54596;43.216;27.904;2022-08-25T03:00:21;23.16;73.08
67799;SHT30;54596;43.216;27.904;2022-08-25T03:02:47;23.16;73.19
67799;SHT30;54596;43.216;27.904;2022-08-25T03:05:14;23.13;73.30
67799;SHT30;54596;43.216;27.904;2022-08-25T03:07:40;23.06;73.68
67799;SHT30;54596;43.216;27.904;2022-08-25T03:10:13;23.00;73.93
67799;SHT30;54596;43.216;27.904;2022-08-25T03:12:39;22.98;74.20
67799;SHT30;54596;43.216;27.904;2022-08-25T03:15:09;22.95;74.22
67799;SHT30;54596;43.216;27.904;2022-08-25T03:17:35;22.96;74.18
67799;SHT30;54596;43.216;27.904;2022-08-25T03:20:03;22.98;74.10
67799;SHT30;54596;43.216;27.904;2022-08-25T03:22:29;22.99;74.19
67799;SHT30;54596;43.216;27.904;2022-08-25T03:24:55;22.99;74.36
67799;SHT30;54596;43.216;27.904;2022-08-25T03:27:40;23.00;74.22
67799;SHT30;54596;43.216;27.904;2022-08-25T03:30:06;23.02;74.46
67799;SHT30;54596;43.216;27.904;2022-08-25T03:32:32;22.99;74.60
67799;SHT30;54596;43.216;27.904;2022-08-25T03:34:58;22.98;74.73
67799;SHT30;54596;43.216;27.904;2022-08-25T03:37:25;22.95;74.78
67799;SHT30;54596;43.216;27.904;2022-08-25T03:39:51;22.99;74.80
67799;SHT30;54596;43.216;27.904;2022-08-25T03:42:16;23.02;74.74
67799;SHT30;54596;43.216;27.904;2022-08-25T03:44:42;23.02;74.71
67799;SHT30;54596;43.216;27.904;2022-08-25T03:47:07;23.05;74.80
67799;SHT30;54596;43.216;27.904;2022-08-25T03:49:33;23.07;74.77
67799;SHT30;54596;43.216;27.904;2022-08-25T03:51:58;23.19;74.46
67799;SHT30;54596;43.216;27.904;2022-08-25T03:54:24;23.22;74.39
67799;SHT30;54596;43.216;27.904;2022-08-25T03:56:51;23.28;74.25
67799;SHT30;54596;43.216;27.904;2022-08-25T03:59:17;23.30;74.14
67799;SHT30;54596;43.216;27.904;2022-08-25T04:01:44;23.31;74.02
67799;SHT30;54596;43.216;27.904;2022-08-25T04:04:11;23.36;74.05
67799;SHT30;54596;43.216;27.904;2022-08-25T04:06:38;23.37;73.85
67799;SHT30;54596;43.216;27.904;2022-08-25T04:09:04;23.41;74.10
67799;SHT30;54596;43.216;27.904;2022-08-25T04:11:30;23.43;74.06
67799;SHT30;54596;43.216;27.904;2022-08-25T04:13:57;23.47;73.78
67799;SHT30;54596;43.216;27.904;2022-08-25T04:16:25;23.50;73.71
67799;SHT30;54596;43.216;27.904;2022-08-25T04:18:53;23.57;73.60
67799;SHT30;54596;43.216;27.904;2022-08-25T04:21:20;23.62;73.55
67799;SHT30;54596;43.216;27.904;2022-08-25T04:23:47;23.64;73.57
67799;SHT30;54596;43.216;27.904;2022-08-25T04:28:47;23.76;73.07
67799;SHT30;54596;43.216;27.904;2022-08-25T04:31:15;23.82;73.05
67799;SHT30;54596;43.216;27.904;2022-08-25T04:33:41;23.93;72.80
67799;SHT30;54596;43.216;27.904;2022-08-25T04:36:08;23.96;72.70
67799;SHT30;54596;43.216;27.904;2022-08-25T04:38:37;24.08;72.43
67799;SHT30;54596;43.216;27.904;2022-08-25T04:41:04;24.16;72.30
67799;SHT30;54596;43.216;27.904;2022-08-25T04:43:31;24.21;72.20
67799;SHT30;54596;43.216;27.904;2022-08-25T04:45:57;24.29;72.48
67799;SHT30;54596;43.216;27.904;2022-08-25T04:48:23;24.36;72.38
67799;SHT30;54596;43.216;27.904;2022-08-25T04:50:50;24.43;71.92
67799;SHT30;54596;43.216;27.904;2022-08-25T04:53:16;24.50;72.03
67799;SHT30;54596;43.216;27.904;2022-08-25T04:55:44;24.58;71.92
67799;SHT30;54596;43.216;27.904;2022-08-25T04:58:10;24.73;72.34
67799;SHT30;54596;43.216;27.904;2022-08-25T05:00:36;24.79;73.05
67799;SHT30;54596;43.216;27.904;2022-08-25T05:03:03;24.90;73.08
67799;SHT30;54596;43.216;27.904;2022-08-25T05:05:28;25.07;72.86
67799;SHT30;54596;43.216;27.904;2022-08-25T05:07:54;25.22;72.86
67799;SHT30;54596;43.216;27.904;2022-08-25T05:10:20;25.41;72.82
67799;SHT30;54596;43.216;27.904;2022-08-25T05:12:45;25.61;73.06
67799;SHT30;54596;43.216;27.904;2022-08-25T05:15:11;25.96;72.70
67799;SHT30;54596;43.216;27.904;2022-08-25T05:17:56;26.51;71.71
67799;SHT30;54596;43.216;27.904;2022-08-25T05:20:23;26.79;70.92
67799;SHT30;54596;43.216;27.904;2022-08-25T05:22:49;27.02;70.22
67799;SHT30;54596;43.216;27.904;2022-08-25T05:25:14;26.74;71.28
67799;SHT30;54596;43.216;27.904;2022-08-25T05:27:41;26.68;71.43
67799;SHT30;54596;43.216;27.904;2022-08-25T05:30:08;26.57;71.94
67799;SHT30;54596;43.216;27.904;2022-08-25T05:32:34;26.68;71.90
67799;SHT30;54596;43.216;27.904;2022-08-25T05:35:00;26.91;71.48
67799;SHT30;54596;43.216;27.904;2022-08-25T05:37:25;27.16;70.85
67799;SHT30;54596;43.216;27.904;2022-08-25T05:39:51;27.23;70.90
67799;SHT30;54596;43.216;27.904;2022-08-25T05:42:16;27.18;71.38
67799;SHT30;54596;43.216;27.904;2022-08-25T05:44:42;27.34;71.07
67799;SHT30;54596;43.216;27.904;2022-08-25T05:47:07;27.47;70.83
67799;SHT30;54596;43.216;27.904;2022-08-25T05:49:33;27.34;71.19
67799;SHT30;54596;43.216;27.904;2022-08-25T05:51:58;26.95;72.37
67799;SHT30;54596;43.216;27.904;2022-08-25T05:54:24;26.61;73.50
67799;SHT30;54596;43.216;27.904;2022-08-25T05:56:49;26.74;73.36
67799;SHT30;54596;43.216;27.904;2022-08-25T05:59:15;26.95;72.68
67799;SHT30;54596;43.216;27.904;2022-08-25T06:01:41;27.22;71.61
67799;SHT30;54596;43.216;27.904;2022-08-25T06:04:25;27.66;70.26
67799;SHT30;54596;43.216;27.904;2022-08-25T06:06:51;28.41;68.37
67799;SHT30;54596;43.216;27.904;2022-08-25T06:09:19;28.89;67.14
67799;SHT30;54596;43.216;27.904;2022-08-25T06:11:47;30.14;63.82
67799;SHT30;54596;43.216;27.904;2022-08-25T06:14:13;30.71;62.46
67799;SHT30;54596;43.216;27.904;2022-08-25T06:16:39;31.99;59.31
67799;SHT30;54596;43.216;27.904;2022-08-25T06:19:06;33.19;56.34
67799;SHT30;54596;43.216;27.904;2022-08-25T06:21:32;34.69;53.57
67799;SHT30;54596;43.216;27.904;2022-08-25T06:23:57;35.98;50.35
67799;SHT30;54596;43.216;27.904;2022-08-25T06:26:23;36.75;49.22
67799;SHT30;54596;43.216;27.904;2022-08-25T06:28:50;36.61;49.68
67799;SHT30;54596;43.216;27.904;2022-08-25T06:31:20;37.13;48.91
67799;SHT30;54596;43.216;27.904;2022-08-25T06:33:46;36.74;49.71
67799;SHT30;54596;43.216;27.904;2022-08-25T06:36:12;37.78;48.13
67799;SHT30;54596;43.216;27.904;2022-08-25T06:38:38;35.80;51.22
67799;SHT30;54596;43.216;27.904;2022-08-25T06:41:06;35.43;52.53
67799;SHT30;54596;43.216;27.904;2022-08-25T06:43:33;36.58;50.54
67799;SHT30;54596;43.216;27.904;2022-08-25T06:46:11;36.09;50.98
67799;SHT30;54596;43.216;27.904;2022-08-25T06:48:37;34.75;53.98
67799;SHT30;54596;43.216;27.904;2022-08-25T06:51:16;34.15;55.29
67799;SHT30;54596;43.216;27.904;2022-08-25T06:53:44;34.69;54.47
67799;SHT30;54596;43.216;27.904;2022-08-25T06:56:10;35.02;53.58
67799;SHT30;54596;43.216;27.904;2022-08-25T06:58:36;35.74;52.23
67799;SHT30;54596;43.216;27.904;2022-08-25T07:01:09;36.16;51.02
67799;SHT30;54596;43.216;27.904;2022-08-25T07:03:34;35.19;52.48
67799;SHT30;54596;43.216;27.904;2022-08-25T07:06:00;35.46;52.27
67799;SHT30;54596;43.216;27.904;2022-08-25T07:08:25;35.10;52.98
67799;SHT30;54596;43.216;27.904;2022-08-25T07:10:51;34.91;53.59
67799;SHT30;54596;43.216;27.904;2022-08-25T07:13:16;34.67;53.52
67799;SHT30;54596;43.216;27.904;2022-08-25T07:15:42;34.40;54.50
67799;SHT30;54596;43.216;27.904;2022-08-25T07:18:08;32.71;57.32
67799;SHT30;54596;43.216;27.904;2022-08-25T07:20:36;31.69;59.95
67799;SHT30;54596;43.216;27.904;2022-08-25T07:23:01;31.51;60.64
67799;SHT30;54596;43.216;27.904;2022-08-25T07:25:27;32.33;59.01
67799;SHT30;54596;43.216;27.904;2022-08-25T07:27:53;32.59;57.84
67799;SHT30;54596;43.216;27.904;2022-08-25T07:30:19;32.34;58.63
67799;SHT30;54596;43.216;27.904;2022-08-25T07:32:44;32.62;57.60
67799;SHT30;54596;43.216;27.904;2022-08-25T07:35:10;32.58;57.87
67799;SHT30;54596;43.216;27.904;2022-08-25T07:37:40;32.59;57.88
67799;SHT30;54596;43.216;27.904;2022-08-25T07:40:08;32.51;58.03
67799;SHT30;54596;43.216;27.904;2022-08-25T07:42:34;33.14;57.12
67799;SHT30;54596;43.216;27.904;2022-08-25T07:45:00;33.14;56.96
67799;SHT30;54596;43.216;27.904;2022-08-25T07:47:26;32.83;57.48
67799;SHT30;54596;43.216;27.904;2022-08-25T07:49:51;33.17;56.28
67799;SHT30;54596;43.216;27.904;2022-08-25T07:52:17;32.65;56.73
67799;SHT30;54596;43.216;27.904;2022-08-25T07:54:42;32.69;56.72
67799;SHT30;54596;43.216;27.904;2022-08-25T07:57:08;33.34;55.41
67799;SHT30;54596;43.216;27.904;2022-08-25T07:59:38;34.03;53.73
67799;SHT30;54596;43.216;27.904;2022-08-25T08:02:04;34.30;53.07
67799;SHT30;54596;43.216;27.904;2022-08-25T08:04:29;34.55;52.26
67799;SHT30;54596;43.216;27.904;2022-08-25T08:06:54;34.09;51.72
67799;SHT30;54596;43.216;27.904;2022-08-25T08:09:20;34.05;51.55
67799;SHT30;54596;43.216;27.904;2022-08-25T08:11:45;34.37;51.22
67799;SHT30;54596;43.216;27.904;2022-08-25T08:14:11;33.69;51.52
67799;SHT30;54596;43.216;27.904;2022-08-25T08:16:37;34.23;50.10
67799;SHT30;54596;43.216;27.904;2022-08-25T08:19:04;34.50;50.41
67799;SHT30;54596;43.216;27.904;2022-08-25T08:21:33;34.98;49.69
67799;SHT30;54596;43.216;27.904;2022-08-25T08:23:59;35.12;49.80
67799;SHT30;54596;43.216;27.904;2022-08-25T08:26:26;35.29;49.78
67799;SHT30;54596;43.216;27.904;2022-08-25T08:28:52;35.17;49.22
67799;SHT30;54596;43.216;27.904;2022-08-25T08:31:20;34.79;49.36
67799;SHT30;54596;43.216;27.904;2022-08-25T08:33:49;34.15;49.98
67799;SHT30;54596;43.216;27.904;2022-08-25T08:36:16;34.12;50.52
67799;SHT30;54596;43.216;27.904;2022-08-25T08:38:43;33.98;51.51
67799;SHT30;54596;43.216;27.904;2022-08-25T08:47:06;35.03;48.59
67799;SHT30;54596;43.216;27.904;2022-08-25T08:52:23;35.37;48.70
67799;SHT30;54596;43.216;27.904;2022-08-25T08:54:57;35.44;47.49
67799;SHT30;54596;43.216;27.904;2022-08-25T08:57:27;35.30;48.02
67799;SHT30;54596;43.216;27.904;2022-08-25T09:00:05;35.13;48.02
67799;SHT30;54596;43.216;27.904;2022-08-25T09:02:34;34.86;48.39
67799;SHT30;54596;43.216;27.904;2022-08-25T09:05:03;34.37;48.00
67799;SHT30;54596;43.216;27.904;2022-08-25T09:07:47;33.99;48.11
67799;SHT30;54596;43.216;27.904;2022-08-25T09:10:15;33.82;48.17
67799;SHT30;54596;43.216;27.904;2022-08-25T09:21:51;33.13;49.77
67799;SHT30;54596;43.216;27.904;2022-08-25T09:24:29;32.86;49.86
67799;SHT30;54596;43.216;27.904;2022-08-25T09:29:29;33.26;49.22
67799;SHT30;54596;43.216;27.904;2022-08-25T09:32:00;33.40;49.40
67799;SHT30;54596;43.216;27.904;2022-08-25T09:34:31;33.47;48.64
67799;SHT30;54596;43.216;27.904;2022-08-25T09:36:59;33.53;48.64
67799;SHT30;54596;43.216;27.904;2022-08-25T09:39:25;33.40;48.63
67799;SHT30;54596;43.216;27.904;2022-08-25T09:41:53;32.98;47.76
67799;SHT30;54596;43.216;27.904;2022-08-25T09:44:26;33.09;46.79
67799;SHT30;54596;43.216;27.904;2022-08-25T09:49:55;33.10;45.35
67799;SHT30;54596;43.216;27.904;2022-08-25T09:52:40;33.24;45.33
67799;SHT30;54596;43.216;27.904;2022-08-25T09:57:55;33.50;44.42
67799;SHT30;54596;43.216;27.904;2022-08-25T10:00:28;33.44;44.13
67799;SHT30;54596;43.216;27.904;2022-08-25T10:05:30;33.03;44.70
67799;SHT30;54596;43.216;27.904;2022-08-25T10:11:09;33.14;44.04
67799;SHT30;54596;43.216;27.904;2022-08-25T10:13:44;33.33;43.70
67799;SHT30;54596;43.216;27.904;2022-08-25T10:16:31;33.21;42.79
67799;SHT30;54596;43.216;27.904;2022-08-25T10:21:31;32.80;43.93
67799;SHT30;54596;43.216;27.904;2022-08-25T10:23:58;32.68;44.66
67799;SHT30;54596;43.216;27.904;2022-08-25T10:31:58;32.37;45.07
67799;SHT30;54596;43.216;27.904;2022-08-25T10:34:50;32.37;44.09
67799;SHT30;54596;43.216;27.904;2022-08-25T10:39:55;32.48;44.72
67799;SHT30;54596;43.216;27.904;2022-08-25T10:54:25;32.64;46.21
67799;SHT30;54596;43.216;27.904;2022-08-25T10:56:45;32.57;45.04
67799;SHT30;54596;43.216;27.904;2022-08-25T11:04:43;32.50;43.39
67799;SHT30;54596;43.216;27.904;2022-08-25T11:07:34;32.76;44.08
67799;SHT30;54596;43.216;27.904;2022-08-25T11:10:10;32.86;43.34
67799;SHT30;54596;43.216;27.904;2022-08-25T11:12:45;32.86;43.23
67799;SHT30;54596;43.216;27.904;2022-08-25T11:15:19;32.80;44.25
67799;SHT30;54596;43.216;27.904;2022-08-25T11:17:55;32.76;44.56
67799;SHT30;54596;43.216;27.904;2022-08-25T11:20:35;32.76;44.89
67799;SHT30;54596;43.216;27.904;2022-08-25T11:25:42;32.75;44.67
67799;SHT30;54596;43.216;27.904;2022-08-25T11:28:25;32.74;42.69
67799;SHT30;54596;43.216;27.904;2022-08-25T11:30:56;32.67;42.03
67799;SHT30;54596;43.216;27.904;2022-08-25T11:33:26;32.34;43.37
67799;SHT30;54596;43.216;27.904;2022-08-25T11:36:27;32.20;42.16
67799;SHT30;54596;43.216;27.904;2022-08-25T11:39:27;32.06;43.06
67799;SHT30;54596;43.216;27.904;2022-08-25T11:42:30;32.00;44.13
67799;SHT30;54596;43.216;27.904;2022-08-25T11:51:04;31.85;43.75
67799;SHT30;54596;43.216;27.904;2022-08-25T11:53:41;31.79;45.32
67799;SHT30;54596;43.216;27.904;2022-08-25T11:56:10;31.69;44.95
67799;SHT30;54596;43.216;27.904;2022-08-25T11:58:41;31.51;46.18
67799;SHT30;54596;43.216;27.904;2022-08-25T12:01:59;31.37;44.86
67799;SHT30;54596;43.216;27.904;2022-08-25T12:15:54;31.61;48.42
67799;SHT30;54596;43.216;27.904;2022-08-25T12:23:36;31.27;46.36
67799;SHT30;54596;43.216;27.904;2022-08-25T12:37:57;31.07;46.38
67799;SHT30;54596;43.216;27.904;2022-08-25T12:40:28;31.13;46.99
67799;SHT30;54596;43.216;27.904;2022-08-25T12:43:02;31.00;48.47
67799;SHT30;54596;43.216;27.904;2022-08-25T12:45:37;31.20;48.37
67799;SHT30;54596;43.216;27.904;2022-08-25T12:51:04;31.48;48.34
67799;SHT30;54596;43.216;27.904;2022-08-25T12:53:38;31.54;47.52
67799;SHT30;54596;43.216;27.904;2022-08-25T12:56:36;31.27;47.16
67799;SHT30;54596;43.216;27.904;2022-08-25T12:59:31;31.14;46.26
67799;SHT30;54596;43.216;27.904;2022-08-25T13:16:17;30.42;48.00
67799;SHT30;54596;43.216;27.904;2022-08-25T13:18:42;30.34;48.37
67799;SHT30;54596;43.216;27.904;2022-08-25T13:21:19;30.37;48.65
67799;SHT30;54596;43.216;27.904;2022-08-25T13:23:49;30.09;49.66
67799;SHT30;54596;43.216;27.904;2022-08-25T13:26:27;30.13;50.00
67799;SHT30;54596;43.216;27.904;2022-08-25T13:29:01;30.09;49.81
67799;SHT30;54596;43.216;27.904;2022-08-25T13:31:28;30.14;50.01
67799;SHT30;54596;43.216;27.904;2022-08-25T13:34:00;30.14;49.27
67799;SHT30;54596;43.216;27.904;2022-08-25T13:36:31;30.00;48.45
67799;SHT30;54596;43.216;27.904;2022-08-25T13:39:22;30.02;48.46
67799;SHT30;54596;43.216;27.904;2022-08-25T13:41:57;29.83;49.33
67799;SHT30;54596;43.216;27.904;2022-08-25T13:44:24;29.80;49.25
67799;SHT30;54596;43.216;27.904;2022-08-25T13:47:12;29.86;49.30
67799;SHT30;54596;43.216;27.904;2022-08-25T13:49:41;29.90;49.78
67799;SHT30;54596;43.216;27.904;2022-08-25T13:52:16;29.96;49.95
67799;SHT30;54596;43.216;27.904;2022-08-25T13:54:43;29.85;51.28
67799;SHT30;54596;43.216;27.904;2022-08-25T13:59:42;29.86;51.39
67799;SHT30;54596;43.216;27.904;2022-08-25T14:02:11;29.89;51.28
67799;SHT30;54596;43.216;27.904;2022-08-25T14:07:15;29.90;51.41
67799;SHT30;54596;43.216;27.904;2022-08-25T14:10:10;29.85;50.96
67799;SHT30;54596;43.216;27.904;2022-08-25T14:17:45;29.43;51.00
67799;SHT30;54596;43.216;27.904;2022-08-25T14:20:23;29.27;50.91
67799;SHT30;54596;43.216;27.904;2022-08-25T14:22:55;29.19;51.11
67799;SHT30;54596;43.216;27.904;2022-08-25T14:25:21;29.16;51.58
67799;SHT30;54596;43.216;27.904;2022-08-25T14:28:00;29.11;51.66
67799;SHT30;54596;43.216;27.904;2022-08-25T14:30:27;29.09;51.66
67799;SHT30;54596;43.216;27.904;2022-08-25T14:32:53;29.04;51.47
67799;SHT30;54596;43.216;27.904;2022-08-25T14:35:19;28.96;50.89
67799;SHT30;54596;43.216;27.904;2022-08-25T14:37:45;28.88;50.64
67799;SHT30;54596;43.216;27.904;2022-08-25T14:40:11;28.83;50.77
67799;SHT30;54596;43.216;27.904;2022-08-25T14:42:39;28.76;51.17
67799;SHT30;54596;43.216;27.904;2022-08-25T14:45:05;28.68;51.76
67799;SHT30;54596;43.216;27.904;2022-08-25T14:47:32;28.62;52.32
67799;SHT30;54596;43.216;27.904;2022-08-25T14:49:57;28.64;52.49
67799;SHT30;54596;43.216;27.904;2022-08-25T14:52:27;28.61;52.67
67799;SHT30;54596;43.216;27.904;2022-08-25T14:54:55;28.55;52.94
67799;SHT30;54596;43.216;27.904;2022-08-25T14:57:24;28.48;53.09
67799;SHT30;54596;43.216;27.904;2022-08-25T14:59:50;28.51;53.17
67799;SHT30;54596;43.216;27.904;2022-08-25T15:02:18;28.45;53.30
67799;SHT30;54596;43.216;27.904;2022-08-25T15:04:51;28.36;53.67
67799;SHT30;54596;43.216;27.904;2022-08-25T15:07:17;28.25;54.04
67799;SHT30;54596;43.216;27.904;2022-08-25T15:10:01;28.20;54.43
67799;SHT30;54596;43.216;27.904;2022-08-25T15:12:27;28.18;54.72
67799;SHT30;54596;43.216;27.904;2022-08-25T15:14:53;28.18;54.86
67799;SHT30;54596;43.216;27.904;2022-08-25T15:17:19;28.17;54.95
67799;SHT30;54596;43.216;27.904;2022-08-25T15:19:45;28.24;54.81
67799;SHT30;54596;43.216;27.904;2022-08-25T15:22:10;28.17;54.73
67799;SHT30;54596;43.216;27.904;2022-08-25T15:24:36;28.14;54.81
67799;SHT30;54596;43.216;27.904;2022-08-25T15:27:03;28.09;55.01
67799;SHT30;54596;43.216;27.904;2022-08-25T15:29:31;28.09;54.86
67799;SHT30;54596;43.216;27.904;2022-08-25T15:32:00;28.05;55.06
67799;SHT30;54596;43.216;27.904;2022-08-25T15:37:13;28.02;55.31
67799;SHT30;54596;43.216;27.904;2022-08-25T15:39:41;28.05;54.97
67799;SHT30;54596;43.216;27.904;2022-08-25T15:42:08;28.09;55.03
67799;SHT30;54596;43.216;27.904;2022-08-25T15:44:37;28.10;54.93
67799;SHT30;54596;43.216;27.904;2022-08-25T15:47:03;28.24;54.05
67799;SHT30;54596;43.216;27.904;2022-08-25T15:49:29;28.30;53.75
67799;SHT30;54596;43.216;27.904;2022-08-25T15:51:54;28.41;52.81
67799;SHT30;54596;43.216;27.904;2022-08-25T15:54:21;28.47;52.14
67799;SHT30;54596;43.216;27.904;2022-08-25T15:56:47;28.47;52.02
67799;SHT30;54596;43.216;27.904;2022-08-25T15:59:13;28.51;51.99
67799;SHT30;54596;43.216;27.904;2022-08-25T16:01:40;28.66;51.86
67799;SHT30;54596;43.216;27.904;2022-08-25T16:04:06;28.66;52.14
67799;SHT30;54596;43.216;27.904;2022-08-25T16:06:31;28.58;52.54
67799;SHT30;54596;43.216;27.904;2022-08-25T16:08:59;28.45;52.90
67799;SHT30;54596;43.216;27.904;2022-08-25T16:11:27;28.31;53.28
67799;SHT30;54596;43.216;27.904;2022-08-25T16:13:54;28.25;53.46
67799;SHT30;54596;43.216;27.904;2022-08-25T16:16:21;28.24;53.23
67799;SHT30;54596;43.216;27.904;2022-08-25T16:18:47;28.16;53.01
67799;SHT30;54596;43.216;27.904;2022-08-25T16:21:17;28.27;51.80
67799;SHT30;54596;43.216;27.904;2022-08-25T16:23:44;28.20;51.74
67799;SHT30;54596;43.216;27.904;2022-08-25T16:26:12;28.12;51.28
67799;SHT30;54596;43.216;27.904;2022-08-25T16:28:39;28.03;51.38
67799;SHT30;54596;43.216;27.904;2022-08-25T16:31:09;28.03;51.68
67799;SHT30;54596;43.216;27.904;2022-08-25T16:33:35;28.02;51.28
67799;SHT30;54596;43.216;27.904;2022-08-25T16:38:30;27.88;51.58
67799;SHT30;54596;43.216;27.904;2022-08-25T16:40:56;27.86;51.07
67799;SHT30;54596;43.216;27.904;2022-08-25T16:43:21;27.77;51.29
67799;SHT30;54596;43.216;27.904;2022-08-25T16:45:56;27.68;51.60
67799;SHT30;54596;43.216;27.904;2022-08-25T16:48:21;27.61;51.78
67799;SHT30;54596;43.216;27.904;2022-08-25T16:50:47;27.71;51.60
67799;SHT30;54596;43.216;27.904;2022-08-25T16:53:12;27.75;51.56
67799;SHT30;54596;43.216;27.904;2022-08-25T16:56:03;27.79;51.96
67799;SHT30;54596;43.216;27.904;2022-08-25T16:58:30;27.75;52.36
67799;SHT30;54596;43.216;27.904;2022-08-25T17:01:08;27.75;52.62
67799;SHT30;54596;43.216;27.904;2022-08-25T17:03:35;27.69;52.68
67799;SHT30;54596;43.216;27.904;2022-08-25T17:06:01;27.68;53.10
67799;SHT30;54596;43.216;27.904;2022-08-25T17:08:27;27.65;53.51
67799;SHT30;54596;43.216;27.904;2022-08-25T17:10:54;27.79;53.57
67799;SHT30;54596;43.216;27.904;2022-08-25T17:13:27;27.61;54.25
67799;SHT30;54596;43.216;27.904;2022-08-25T17:15:53;27.47;55.26
67799;SHT30;54596;43.216;27.904;2022-08-25T17:18:19;27.59;55.27
67799;SHT30;54596;43.216;27.904;2022-08-25T17:20:44;27.57;55.44
67799;SHT30;54596;43.216;27.904;2022-08-25T17:23:11;27.52;55.87
67799;SHT30;54596;43.216;27.904;2022-08-25T17:25:37;27.41;56.28
67799;SHT30;54596;43.216;27.904;2022-08-25T17:28:04;27.27;57.40
67799;SHT30;54596;43.216;27.904;2022-08-25T17:30:30;27.13;58.32
67799;SHT30;54596;43.216;27.904;2022-08-25T17:32:57;27.18;58.53
67799;SHT30;54596;43.216;27.904;2022-08-25T17:35:22;27.09;58.71
67799;SHT30;54596;43.216;27.904;2022-08-25T17:37:48;26.98;59.49
67799;SHT30;54596;43.216;27.904;2022-08-25T17:40:13;26.91;59.88